Terminal Aerodrome Forecast
Issued by NWS Dallas/Fort Worth, TX

Home | Current Version | Previous Version | Text Only | Print | Product List | Glossary On
Versions: 1 2 3 4 5 6 7 8 9 10 11 12 13 14 15 16 17 18 19 20 21 22 23 24 25 26 27
000
FTUS44 KFWD 271737
TAFDFW
TAF
KDFW 271737Z 2718/2824 19006KT P6SM VCTS SCT060CB BKN150
      TEMPO 2718/2721 VRB20G30KT 5SM -TSRA BKN050CB
     FM280000 16007KT P6SM SCT050 SCT200
     FM281100 18008KT P6SM VCSH BKN040
     FM281600 20007KT P6SM SCT050 SCT150=

USA.gov is the U.S. government's official web portal to all federal, state and local government web resources and services.